Time;durP1;ratioP1;P1;durP2;ratioP2;P2;SDS_P1;SDS_P2;PMS_P1;PMS_P2;Temp;Humidity;BMP_temperature;BMP_pressure;BME280_temperature;BME280_humidity;BME280_pressure;Samples;Min_cycle;Max_cycle;Signal;HPM_P1;HPM_P2
2023/08/12 00:01:14;;;;;;;5.23;3.57;;;;;;;;;;5006744;28;20208;-76
2023/08/12 00:03:39;;;;;;;3.07;2.87;;;;;;;;;;5027138;28;20197;-76
2023/08/12 00:06:05;;;;;;;3.50;3.20;;;;;;;;;;5023519;28;20213;-76
2023/08/12 00:08:33;;;;;;;3.10;2.80;;;;;;;;;;5028945;28;20181;-76
2023/08/12 00:10:58;;;;;;;3.50;3.20;;;;;;;;;;5011106;28;20173;-76
2023/08/12 00:13:24;;;;;;;4.00;3.07;;;;;;;;;;5024872;28;20188;-76
2023/08/12 00:15:49;;;;;;;2.87;2.67;;;;;;;;;;5016821;28;20187;-76
2023/08/12 00:18:15;;;;;;;3.10;2.90;;;;;;;;;;5013295;28;20184;-76
2023/08/12 00:20:40;;;;;;;3.80;2.90;;;;;;;;;;5008714;28;20183;-76
2023/08/12 00:23:05;;;;;;;4.37;3.33;;;;;;;;;;5028877;28;20197;-76
2023/08/12 00:25:30;;;;;;;3.97;3.40;;;;;;;;;;5011329;28;20197;-76
2023/08/12 00:27:56;;;;;;;3.83;3.00;;;;;;;;;;5010153;28;20188;-76
2023/08/12 00:30:21;;;;;;;2.90;2.70;;;;;;;;;;5017676;28;20229;-76
2023/08/12 00:32:46;;;;;;;3.57;2.97;;;;;;;;;;5012700;28;20178;-76
2023/08/12 00:35:11;;;;;;;3.97;3.07;;;;;;;;;;5030462;28;20177;-76
2023/08/12 00:37:36;;;;;;;2.97;2.77;;;;;;;;;;5010550;28;20186;-76
2023/08/12 00:40:02;;;;;;;6.50;3.43;;;;;;;;;;5006322;28;20191;-76
2023/08/12 00:42:27;;;;;;;4.47;3.10;;;;;;;;;;5011100;28;20192;-76
2023/08/12 00:44:52;;;;;;;3.50;3.20;;;;;;;;;;5010316;28;20188;-76
2023/08/12 00:47:17;;;;;;;3.23;3.00;;;;;;;;;;5014824;28;20180;-76
2023/08/12 00:49:46;;;;;;;2.97;2.53;;;;;;;;;;5028946;28;20243;-76
2023/08/12 00:52:12;;;;;;;5.60;3.27;;;;;;;;;;5012348;28;20220;-76
2023/08/12 00:54:37;;;;;;;3.00;2.80;;;;;;;;;;5012402;28;20180;-76
2023/08/12 00:57:03;;;;;;;4.23;2.93;;;;;;;;;;5010567;28;20186;-76
2023/08/12 00:59:28;;;;;;;3.30;3.00;;;;;;;;;;5016501;28;20196;-76
2023/08/12 01:01:53;;;;;;;3.20;2.90;;;;;;;;;;5014875;28;20186;-76
2023/08/12 01:04:19;;;;;;;3.23;2.93;;;;;;;;;;5033505;28;20267;-76
2023/08/12 01:06:45;;;;;;;3.30;3.00;;;;;;;;;;5016053;28;20216;-76
2023/08/12 01:09:10;;;;;;;3.37;3.07;;;;;;;;;;5012838;28;20337;-76
2023/08/12 01:11:50;;;;;;;3.43;3.13;;;;;;;;;;5028893;28;20245;-76
2023/08/12 01:14:23;;;;;;;3.70;3.40;;;;;;;;;;5031008;28;20189;-76
2023/08/12 01:16:51;;;;;;;3.77;3.33;;;;;;;;;;5016719;28;20183;-76
2023/08/12 01:19:24;;;;;;;3.67;3.37;;;;;;;;;;5013868;28;20189;-76
2023/08/12 01:21:50;;;;;;;5.07;3.97;;;;;;;;;;5031557;28;20184;-76
2023/08/12 01:24:16;;;;;;;3.97;3.30;;;;;;;;;;5021661;28;20399;-76
2023/08/12 01:26:41;;;;;;;3.80;3.50;;;;;;;;;;5014757;28;20209;-76
2023/08/12 01:29:06;;;;;;;3.20;2.90;;;;;;;;;;5034070;28;20207;-76
2023/08/12 01:31:34;;;;;;;3.80;3.50;;;;;;;;;;5014855;28;20181;-76
2023/08/12 01:34:05;;;;;;;3.77;3.47;;;;;;;;;;5013457;28;20238;-76
2023/08/12 01:36:31;;;;;;;4.03;3.30;;;;;;;;;;5017040;28;20183;-76
2023/08/12 01:38:59;;;;;;;4.20;3.60;;;;;;;;;;5014379;28;20228;-76
2023/08/12 01:41:25;;;;;;;4.53;3.83;;;;;;;;;;5020836;28;20184;-76
2023/08/12 01:43:50;;;;;;;4.07;3.70;;;;;;;;;;5009596;28;20182;-76
2023/08/12 01:46:15;;;;;;;4.13;3.73;;;;;;;;;;5011400;28;20305;-76
2023/08/12 01:48:41;;;;;;;4.13;3.83;;;;;;;;;;5015843;28;20210;-76
2023/08/12 01:51:06;;;;;;;4.10;3.80;;;;;;;;;;5031180;28;20237;-76
2023/08/12 01:53:31;;;;;;;3.93;3.63;;;;;;;;;;5030951;28;20173;-76
2023/08/12 01:55:56;;;;;;;4.53;3.60;;;;;;;;;;5030700;28;20189;-76
2023/08/12 01:58:21;;;;;;;4.53;3.70;;;;;;;;;;5033085;28;20200;-76
2023/08/12 02:00:47;;;;;;;5.23;4.13;;;;;;;;;;5031543;28;20184;-76
2023/08/12 02:03:12;;;;;;;4.60;4.20;;;;;;;;;;5019021;28;20190;-76
2023/08/12 02:05:37;;;;;;;5.07;4.23;;;;;;;;;;5014702;28;20221;-76
2023/08/12 02:08:03;;;;;;;4.50;4.10;;;;;;;;;;5028742;28;20209;-76
2023/08/12 02:10:28;;;;;;;4.10;3.80;;;;;;;;;;5033861;28;20184;-76
2023/08/12 02:12:54;;;;;;;4.40;3.97;;;;;;;;;;5012672;28;20312;-76
2023/08/12 02:15:19;;;;;;;3.93;3.63;;;;;;;;;;5029773;28;20180;-76
2023/08/12 02:17:44;;;;;;;4.27;3.83;;;;;;;;;;5008853;28;20191;-76
2023/08/12 02:20:10;;;;;;;3.73;3.43;;;;;;;;;;5031947;28;20174;-76
2023/08/12 02:22:35;;;;;;;3.87;3.50;;;;;;;;;;5009205;28;20183;-76
2023/08/12 02:25:00;;;;;;;5.87;3.50;;;;;;;;;;5013904;28;20192;-76
2023/08/12 02:27:25;;;;;;;6.13;3.70;;;;;;;;;;5030355;28;20197;-75
2023/08/12 02:29:50;;;;;;;5.07;3.80;;;;;;;;;;5013759;28;20173;-76
2023/08/12 02:32:16;;;;;;;5.13;3.87;;;;;;;;;;5027433;28;20194;-76
2023/08/12 02:34:41;;;;;;;3.87;3.50;;;;;;;;;;5015323;28;20177;-76
2023/08/12 02:37:06;;;;;;;5.90;3.83;;;;;;;;;;5018091;28;20185;-76
2023/08/12 02:39:31;;;;;;;4.43;3.57;;;;;;;;;;5013825;28;20205;-76
2023/08/12 02:41:56;;;;;;;3.90;3.60;;;;;;;;;;5008661;28;20188;-76
2023/08/12 02:44:22;;;;;;;4.50;3.67;;;;;;;;;;5006926;28;20193;-76
2023/08/12 02:46:47;;;;;;;4.90;3.37;;;;;;;;;;5015285;28;20231;-76
2023/08/12 02:49:12;;;;;;;4.10;3.70;;;;;;;;;;5009249;28;20181;-76
2023/08/12 02:51:37;;;;;;;4.03;3.73;;;;;;;;;;5009368;28;20241;-76
2023/08/12 02:54:02;;;;;;;3.93;3.63;;;;;;;;;;5026287;28;20185;-76
2023/08/12 02:56:28;;;;;;;6.43;4.07;;;;;;;;;;5017196;28;20249;-76
2023/08/12 02:58:53;;;;;;;4.43;3.87;;;;;;;;;;5012025;28;20177;-76
2023/08/12 03:01:18;;;;;;;4.50;4.10;;;;;;;;;;5019122;28;20305;-76
2023/08/12 03:03:44;;;;;;;5.90;3.67;;;;;;;;;;5009960;28;20191;-76
2023/08/12 03:06:09;;;;;;;4.80;4.40;;;;;;;;;;5017061;28;20199;-76
2023/08/12 03:08:35;;;;;;;4.33;3.93;;;;;;;;;;5016807;28;20269;-76
2023/08/12 03:11:00;;;;;;;3.93;3.63;;;;;;;;;;5029661;28;20191;-76
2023/08/12 03:13:26;;;;;;;12.17;4.50;;;;;;;;;;5016947;28;20189;-76
2023/08/12 03:15:51;;;;;;;4.20;3.80;;;;;;;;;;5016339;28;20188;-76
2023/08/12 03:18:16;;;;;;;4.33;3.93;;;;;;;;;;5015508;28;20263;-76
2023/08/12 03:20:41;;;;;;;4.77;4.10;;;;;;;;;;5013364;28;20213;-76
2023/08/12 03:23:06;;;;;;;4.33;3.93;;;;;;;;;;5011702;28;20196;-76
2023/08/12 03:25:32;;;;;;;4.63;3.43;;;;;;;;;;5019052;28;20215;-76
2023/08/12 03:27:57;;;;;;;3.90;3.60;;;;;;;;;;5010832;28;20205;-76
2023/08/12 03:30:22;;;;;;;4.13;3.80;;;;;;;;;;5032563;28;20170;-76
2023/08/12 03:32:47;;;;;;;5.13;3.50;;;;;;;;;;5030089;28;20177;-76
2023/08/12 03:35:13;;;;;;;3.90;3.60;;;;;;;;;;5017616;28;20182;-76
2023/08/12 03:37:38;;;;;;;4.40;3.83;;;;;;;;;;5010135;28;20205;-76
2023/08/12 03:40:03;;;;;;;4.60;3.70;;;;;;;;;;5026791;28;20188;-76
2023/08/12 03:42:28;;;;;;;4.37;3.77;;;;;;;;;;5028943;28;20213;-76
2023/08/12 03:44:54;;;;;;;4.43;3.53;;;;;;;;;;5028090;28;20204;-76
2023/08/12 03:47:21;;;;;;;4.07;3.77;;;;;;;;;;5009009;28;20242;-76
2023/08/12 03:49:47;;;;;;;4.80;4.27;;;;;;;;;;5013450;28;20195;-76
2023/08/12 03:52:12;;;;;;;4.73;4.30;;;;;;;;;;5018991;28;20230;-76
2023/08/12 03:54:37;;;;;;;4.27;3.87;;;;;;;;;;5033348;28;20184;-76
2023/08/12 03:57:02;;;;;;;4.33;3.80;;;;;;;;;;5012809;28;20178;-76
2023/08/12 03:59:27;;;;;;;4.33;3.93;;;;;;;;;;5009003;28;20203;-76
2023/08/12 04:01:53;;;;;;;6.43;4.60;;;;;;;;;;5013121;28;20271;-76
2023/08/12 04:04:18;;;;;;;5.67;4.23;;;;;;;;;;5008952;28;20263;-76
2023/08/12 04:06:43;;;;;;;4.67;4.27;;;;;;;;;;5012490;28;20204;-76
2023/08/12 04:09:08;;;;;;;4.23;3.83;;;;;;;;;;5012219;28;20177;-76
2023/08/12 04:11:34;;;;;;;6.20;4.40;;;;;;;;;;5012691;28;20180;-76
2023/08/12 04:13:59;;;;;;;4.70;4.30;;;;;;;;;;5015230;28;20197;-76
2023/08/12 04:16:25;;;;;;;4.30;4.00;;;;;;;;;;5012298;28;20193;-76
2023/08/12 04:18:50;;;;;;;4.30;3.90;;;;;;;;;;5024337;28;20186;-76
2023/08/12 04:21:15;;;;;;;4.90;4.40;;;;;;;;;;5028796;28;20199;-76
2023/08/12 04:23:40;;;;;;;4.43;4.07;;;;;;;;;;5029185;28;20196;-75
2023/08/12 04:26:05;;;;;;;4.43;4.10;;;;;;;;;;5015169;28;20201;-76
2023/08/12 04:28:30;;;;;;;6.17;4.40;;;;;;;;;;5014658;28;20187;-76
2023/08/12 04:30:56;;;;;;;6.23;3.90;;;;;;;;;;5008312;28;20193;-76
2023/08/12 04:33:22;;;;;;;4.93;4.43;;;;;;;;;;5017448;28;20185;-76
2023/08/12 04:35:47;;;;;;;6.87;4.10;;;;;;;;;;5014272;28;20192;-75
2023/08/12 04:38:13;;;;;;;5.13;4.03;;;;;;;;;;5018658;28;20184;-76
2023/08/12 04:40:38;;;;;;;4.43;4.00;;;;;;;;;;5018161;28;20189;-76
2023/08/12 04:43:03;;;;;;;4.03;3.73;;;;;;;;;;5018083;28;20180;-76
2023/08/12 04:45:29;;;;;;;5.30;4.33;;;;;;;;;;5035982;28;20237;-76
2023/08/12 04:47:55;;;;;;;4.27;3.87;;;;;;;;;;5035390;28;20204;-76
2023/08/12 04:50:20;;;;;;;6.77;4.43;;;;;;;;;;5015120;28;20207;-76
2023/08/12 04:52:46;;;;;;;4.57;4.03;;;;;;;;;;5013953;28;20190;-75
2023/08/12 04:55:11;;;;;;;4.93;4.23;;;;;;;;;;5015766;28;20191;-76
2023/08/12 04:57:36;;;;;;;4.10;3.80;;;;;;;;;;5012663;28;20196;-76
2023/08/12 05:00:03;;;;;;;5.80;4.07;;;;;;;;;;5022253;28;20178;-76
2023/08/12 05:02:28;;;;;;;5.97;4.37;;;;;;;;;;5017286;28;20183;-76
2023/08/12 05:04:53;;;;;;;4.63;4.23;;;;;;;;;;5020640;28;20273;-76
2023/08/12 05:07:18;;;;;;;5.53;4.23;;;;;;;;;;5032918;28;20209;-76
2023/08/12 05:09:44;;;;;;;4.97;4.13;;;;;;;;;;5014018;28;20171;-76
2023/08/12 05:12:09;;;;;;;6.67;3.53;;;;;;;;;;5032727;28;20192;-76
2023/08/12 05:14:34;;;;;;;6.87;4.10;;;;;;;;;;5011108;28;20181;-76
2023/08/12 05:17:00;;;;;;;4.43;3.77;;;;;;;;;;5010570;28;20189;-76
2023/08/12 05:19:25;;;;;;;4.77;4.00;;;;;;;;;;5020910;28;20178;-76
2023/08/12 05:21:50;;;;;;;3.97;3.60;;;;;;;;;;5022151;28;20184;-76
2023/08/12 05:24:15;;;;;;;3.77;3.43;;;;;;;;;;5032346;28;20189;-75
2023/08/12 05:26:40;;;;;;;5.00;4.60;;;;;;;;;;5015194;28;20214;-75
2023/08/12 05:29:05;;;;;;;4.93;4.33;;;;;;;;;;5017128;28;20276;-76
2023/08/12 05:31:31;;;;;;;4.53;4.00;;;;;;;;;;5011234;28;20244;-75
2023/08/12 05:33:56;;;;;;;5.20;4.13;;;;;;;;;;5013592;28;20188;-76
2023/08/12 05:36:21;;;;;;;5.20;4.20;;;;;;;;;;5026365;28;20188;-76
2023/08/12 05:38:46;;;;;;;5.13;4.63;;;;;;;;;;5028052;28;20209;-76
2023/08/12 05:41:11;;;;;;;4.97;4.53;;;;;;;;;;5034250;28;20264;-76
2023/08/12 05:43:37;;;;;;;4.67;4.27;;;;;;;;;;5011923;28;20279;-76
2023/08/12 05:46:02;;;;;;;5.83;4.40;;;;;;;;;;5011621;28;20231;-76
2023/08/12 05:48:28;;;;;;;7.13;4.60;;;;;;;;;;5012531;28;20190;-76
2023/08/12 05:50:53;;;;;;;5.17;4.77;;;;;;;;;;5031230;28;20237;-76
2023/08/12 05:53:18;;;;;;;4.70;4.30;;;;;;;;;;5015427;28;20175;-76
2023/08/12 05:55:43;;;;;;;4.30;3.97;;;;;;;;;;5014309;28;20186;-76
2023/08/12 05:58:09;;;;;;;4.60;4.20;;;;;;;;;;5028372;28;20186;-76
2023/08/12 06:00:34;;;;;;;5.10;4.60;;;;;;;;;;5015289;28;20279;-76
2023/08/12 06:02:59;;;;;;;6.77;5.30;;;;;;;;;;5011958;28;20235;-76
2023/08/12 06:05:24;;;;;;;4.67;4.27;;;;;;;;;;5014274;28;20213;-76
2023/08/12 06:07:49;;;;;;;4.13;3.67;;;;;;;;;;5014147;28;20179;-76
2023/08/12 06:10:15;;;;;;;5.13;4.63;;;;;;;;;;5010266;28;20216;-76
2023/08/12 06:12:40;;;;;;;4.40;3.97;;;;;;;;;;5029536;28;20321;-76
2023/08/12 06:15:05;;;;;;;4.50;4.10;;;;;;;;;;5029903;28;20261;-80
2023/08/12 06:17:30;;;;;;;4.23;3.77;;;;;;;;;;5013218;28;20250;-81
2023/08/12 06:19:56;;;;;;;4.10;3.70;;;;;;;;;;5009315;28;20254;-80
2023/08/12 06:22:21;;;;;;;4.47;4.07;;;;;;;;;;5016542;28;20229;-81
2023/08/12 06:24:46;;;;;;;4.07;3.77;;;;;;;;;;5012383;28;20210;-80
2023/08/12 06:27:11;;;;;;;4.00;3.70;;;;;;;;;;5031473;28;20244;-79
2023/08/12 06:29:36;;;;;;;4.23;3.60;;;;;;;;;;5009205;28;20283;-80
2023/08/12 06:32:02;;;;;;;4.30;3.90;;;;;;;;;;5014921;28;20171;-80
2023/08/12 06:34:27;;;;;;;4.37;3.97;;;;;;;;;;5012601;28;20210;-80
2023/08/12 06:36:52;;;;;;;3.60;3.30;;;;;;;;;;5012759;28;20209;-79
2023/08/12 06:39:17;;;;;;;4.93;4.07;;;;;;;;;;5013790;28;20208;-80
2023/08/12 06:41:43;;;;;;;6.35;4.10;;;;;;;;;;5007067;28;20216;-80
2023/08/12 06:44:08;;;;;;;5.40;3.27;;;;;;;;;;5014661;28;20210;-80
2023/08/12 06:46:33;;;;;;;4.38;3.97;;;;;;;;;;5015156;28;20253;-80
2023/08/12 06:48:59;;;;;;;4.18;3.78;;;;;;;;;;5014276;28;20179;-80
2023/08/12 06:51:24;;;;;;;4.00;3.70;;;;;;;;;;5011944;28;20259;-80
2023/08/12 06:53:49;;;;;;;3.72;3.35;;;;;;;;;;5015146;28;20225;-80
2023/08/12 06:56:15;;;;;;;3.93;3.60;;;;;;;;;;5013582;28;20175;-80
2023/08/12 06:58:40;;;;;;;4.63;4.05;;;;;;;;;;5014286;28;20187;-80
2023/08/12 07:01:05;;;;;;;3.80;3.50;;;;;;;;;;5014659;28;20197;-80
2023/08/12 07:03:30;;;;;;;3.83;3.53;;;;;;;;;;5009836;28;20236;-80
2023/08/12 07:05:55;;;;;;;4.45;3.42;;;;;;;;;;5030729;28;20255;-80
2023/08/12 07:08:21;;;;;;;4.28;3.88;;;;;;;;;;5014414;28;20179;-80
2023/08/12 07:10:46;;;;;;;4.80;3.58;;;;;;;;;;5028207;28;20196;-80
2023/08/12 07:13:11;;;;;;;5.20;3.60;;;;;;;;;;5012278;28;20167;-80
2023/08/12 07:15:36;;;;;;;3.65;3.35;;;;;;;;;;5015950;28;20186;-80
2023/08/12 07:18:02;;;;;;;3.90;3.58;;;;;;;;;;5011382;28;20197;-80
2023/08/12 07:20:27;;;;;;;4.47;3.08;;;;;;;;;;5015406;28;20198;-80
2023/08/12 07:22:52;;;;;;;3.65;3.35;;;;;;;;;;5029094;28;20261;-79
2023/08/12 07:25:17;;;;;;;4.30;3.90;;;;;;;;;;5010484;28;20179;-80
2023/08/12 07:27:42;;;;;;;4.10;3.80;;;;;;;;;;5010500;28;20186;-79
2023/08/12 07:30:08;;;;;;;9.10;4.30;;;;;;;;;;5009275;28;20171;-79
2023/08/12 07:32:34;;;;;;;5.30;3.75;;;;;;;;;;5011428;28;20175;-80
2023/08/12 07:34:59;;;;;;;3.88;3.58;;;;;;;;;;5029540;28;20167;-80
2023/08/12 07:37:25;;;;;;;5.28;4.20;;;;;;;;;;5009091;28;20184;-79
2023/08/12 07:39:50;;;;;;;4.45;4.15;;;;;;;;;;5031586;28;20185;-79
2023/08/12 07:42:15;;;;;;;4.22;3.90;;;;;;;;;;5014233;28;20179;-79
2023/08/12 07:44:41;;;;;;;4.47;4.07;;;;;;;;;;5013933;28;20183;-79
2023/08/12 07:47:06;;;;;;;4.13;3.83;;;;;;;;;;5027590;28;20217;-79
2023/08/12 07:49:31;;;;;;;4.40;4.00;;;;;;;;;;5027538;28;20258;-79
2023/08/12 07:51:56;;;;;;;6.72;4.25;;;;;;;;;;5029813;28;20230;-79
2023/08/12 07:54:22;;;;;;;4.43;3.90;;;;;;;;;;5014716;28;20179;-80
2023/08/12 07:56:47;;;;;;;6.38;4.63;;;;;;;;;;5010638;28;20214;-79
2023/08/12 07:59:12;;;;;;;4.85;4.45;;;;;;;;;;5005534;28;20181;-79
2023/08/12 08:01:37;;;;;;;4.78;3.80;;;;;;;;;;5026757;28;20194;-79
2023/08/12 08:04:03;;;;;;;4.40;4.00;;;;;;;;;;5013604;28;20182;-79
2023/08/12 08:06:28;;;;;;;5.47;4.43;;;;;;;;;;5017657;28;20218;-78
2023/08/12 08:08:55;;;;;;;4.50;4.10;;;;;;;;;;5005782;28;20237;-79
2023/08/12 08:11:20;;;;;;;4.68;4.25;;;;;;;;;;5008531;28;20227;-79
2023/08/12 08:13:46;;;;;;;4.43;4.03;;;;;;;;;;5028698;28;20179;-79
2023/08/12 08:16:11;;;;;;;4.35;4.05;;;;;;;;;;5017674;28;20191;-78
2023/08/12 08:18:36;;;;;;;12.93;4.65;;;;;;;;;;5008915;28;20190;-77
2023/08/12 08:21:01;;;;;;;6.07;4.20;;;;;;;;;;5010595;28;20174;-77
2023/08/12 08:23:26;;;;;;;4.97;4.57;;;;;;;;;;5024560;28;20195;-76
2023/08/12 08:25:52;;;;;;;5.35;4.38;;;;;;;;;;5009706;28;20194;-76
2023/08/12 08:28:17;;;;;;;4.90;4.50;;;;;;;;;;5010986;28;20179;-76
2023/08/12 08:30:43;;;;;;;4.82;4.38;;;;;;;;;;5030662;28;20167;-77
2023/08/12 08:33:08;;;;;;;8.57;4.65;;;;;;;;;;5012310;28;20218;-76
2023/08/12 08:35:33;;;;;;;5.15;4.75;;;;;;;;;;5007502;28;20195;-76
2023/08/12 08:37:58;;;;;;;6.40;4.13;;;;;;;;;;5010323;28;20182;-77
2023/08/12 08:40:25;;;;;;;5.43;4.10;;;;;;;;;;5015271;28;20179;-76
2023/08/12 08:42:52;;;;;;;4.93;4.53;;;;;;;;;;5013502;28;20296;-76
2023/08/12 08:45:18;;;;;;;9.00;5.07;;;;;;;;;;5002323;28;20220;-76
2023/08/12 08:47:43;;;;;;;4.18;3.88;;;;;;;;;;5009488;28;20274;-76
2023/08/12 08:50:09;;;;;;;5.00;4.30;;;;;;;;;;5038336;28;20206;-76
2023/08/12 08:52:37;;;;;;;4.47;3.97;;;;;;;;;;5012260;28;20320;-76
2023/08/12 08:55:02;;;;;;;4.20;3.70;;;;;;;;;;5011530;28;20227;-76
2023/08/12 08:57:28;;;;;;;4.20;3.70;;;;;;;;;;5007923;28;20187;-76
2023/08/12 08:59:53;;;;;;;5.60;4.32;;;;;;;;;;5023440;28;20186;-77
2023/08/12 09:02:19;;;;;;;4.90;4.40;;;;;;;;;;5014467;28;20209;-76
2023/08/12 09:04:45;;;;;;;7.18;5.63;;;;;;;;;;5015822;28;20183;-76
2023/08/12 09:07:11;;;;;;;4.65;4.25;;;;;;;;;;5011677;28;20214;-76
2023/08/12 09:09:38;;;;;;;5.85;4.93;;;;;;;;;;5011105;28;20214;-78
2023/08/12 09:12:04;;;;;;;6.60;4.65;;;;;;;;;;5005755;28;20186;-79
2023/08/12 09:14:29;;;;;;;4.45;4.03;;;;;;;;;;5012150;28;20183;-79
2023/08/12 09:16:55;;;;;;;3.90;3.55;;;;;;;;;;5012940;28;20179;-78
2023/08/12 09:19:20;;;;;;;4.85;4.30;;;;;;;;;;5002399;28;20245;-79
2023/08/12 09:21:51;;;;;;;7.07;4.60;;;;;;;;;;5014378;28;20191;-78
2023/08/12 09:24:16;;;;;;;10.65;4.18;;;;;;;;;;5015199;28;20186;-79
2023/08/12 09:26:42;;;;;;;6.10;4.00;;;;;;;;;;5016593;28;20207;-78
2023/08/12 09:29:08;;;;;;;4.88;4.38;;;;;;;;;;5014743;28;20182;-78
2023/08/12 09:31:33;;;;;;;5.53;4.72;;;;;;;;;;5014763;28;20178;-78
2023/08/12 09:33:59;;;;;;;5.57;4.75;;;;;;;;;;5027897;28;20209;-78
2023/08/12 09:36:27;;;;;;;4.75;4.35;;;;;;;;;;5017069;28;20240;-78
2023/08/12 09:38:52;;;;;;;4.82;4.25;;;;;;;;;;5017292;28;20179;-78
2023/08/12 09:41:18;;;;;;;5.25;4.75;;;;;;;;;;5015159;28;20272;-79
2023/08/12 09:43:44;;;;;;;4.97;4.57;;;;;;;;;;5013150;28;20183;-78
2023/08/12 09:46:15;;;;;;;4.82;4.35;;;;;;;;;;5011970;28;20258;-78
2023/08/12 09:48:40;;;;;;;5.00;4.55;;;;;;;;;;5033457;28;20182;-79
2023/08/12 09:51:06;;;;;;;5.15;4.63;;;;;;;;;;5011864;28;20229;-78
2023/08/12 09:53:32;;;;;;;3.63;3.28;;;;;;;;;;5028807;28;20198;-79
2023/08/12 09:56:01;;;;;;;3.50;3.20;;;;;;;;;;5014663;28;20209;-79
2023/08/12 09:58:29;;;;;;;3.20;2.90;;;;;;;;;;5015888;28;20205;-80
2023/08/12 10:00:54;;;;;;;3.58;3.28;;;;;;;;;;5012778;28;20179;-78
2023/08/12 10:03:19;;;;;;;3.40;3.10;;;;;;;;;;5007878;28;20242;-78
2023/08/12 10:05:45;;;;;;;4.90;2.90;;;;;;;;;;5014758;28;20203;-78
2023/08/12 10:08:12;;;;;;;3.05;2.80;;;;;;;;;;5015765;28;20179;-78
2023/08/12 10:10:37;;;;;;;4.22;3.15;;;;;;;;;;5029043;28;20183;-79
2023/08/12 10:13:07;;;;;;;4.30;3.10;;;;;;;;;;5015380;28;20313;-79
2023/08/12 10:15:32;;;;;;;4.22;2.97;;;;;;;;;;5012691;28;20233;-79
2023/08/12 10:17:57;;;;;;;6.03;3.30;;;;;;;;;;5014378;28;20336;-78
2023/08/12 10:20:24;;;;;;;3.35;3.00;;;;;;;;;;5016794;28;20191;-78
2023/08/12 10:22:49;;;;;;;3.03;2.72;;;;;;;;;;5015443;28;20201;-78
2023/08/12 10:25:17;;;;;;;3.40;2.85;;;;;;;;;;5013487;28;20191;-79
2023/08/12 10:27:42;;;;;;;2.95;2.75;;;;;;;;;;5016172;28;20198;-84
2023/08/12 10:30:09;;;;;;;4.82;3.65;;;;;;;;;;5015424;28;20221;-84
2023/08/12 10:32:34;;;;;;;2.92;2.72;;;;;;;;;;5031506;28;20258;-86
2023/08/12 10:35:00;;;;;;;4.95;3.40;;;;;;;;;;5009279;28;20258;-85
2023/08/12 10:37:25;;;;;;;3.65;3.33;;;;;;;;;;5009883;28;20187;-84
2023/08/12 10:39:54;;;;;;;4.53;3.05;;;;;;;;;;5015175;28;20186;-84
2023/08/12 10:42:39;;;;;;;3.42;2.88;;;;;;;;;;5014751;28;20222;-84
2023/08/12 10:45:08;;;;;;;5.72;3.10;;;;;;;;;;5013569;28;20214;-85
2023/08/12 10:47:37;;;;;;;3.42;2.92;;;;;;;;;;5013678;28;20234;-84
2023/08/12 10:50:02;;;;;;;5.78;3.20;;;;;;;;;;5009284;28;20179;-84
2023/08/12 10:52:28;;;;;;;3.28;3.00;;;;;;;;;;5030992;28;20230;-84
2023/08/12 10:54:53;;;;;;;4.72;3.60;;;;;;;;;;5023029;28;20242;-84
2023/08/12 10:57:34;;;;;;;5.63;3.42;;;;;;;;;;5027818;28;20265;-84
2023/08/12 10:59:59;;;;;;;7.20;4.22;;;;;;;;;;5008829;28;20175;-84
2023/08/12 11:02:27;;;;;;;5.78;4.28;;;;;;;;;;5011279;28;20183;-84
2023/08/12 11:05:11;;;;;;;4.47;4.18;;;;;;;;;;5008162;28;20183;-84
2023/08/12 11:07:57;;;;;;;5.00;4.60;;;;;;;;;;5023630;28;20207;-83
2023/08/12 11:10:24;;;;;;;4.75;4.38;;;;;;;;;;5003105;28;20267;-84
2023/08/12 11:12:56;;;;;;;5.88;4.53;;;;;;;;;;5014024;28;20207;-84
2023/08/12 11:15:32;;;;;;;6.15;4.80;;;;;;;;;;5010360;28;20207;-84
2023/08/12 11:17:57;;;;;;;5.40;4.90;;;;;;;;;;5032548;28;20209;-84
2023/08/12 11:20:22;;;;;;;5.38;4.95;;;;;;;;;;5018509;28;20215;-85
2023/08/12 11:22:47;;;;;;;6.63;4.85;;;;;;;;;;5008899;28;20178;-84
2023/08/12 11:25:13;;;;;;;5.22;4.78;;;;;;;;;;5015930;28;20179;-84
2023/08/12 11:27:40;;;;;;;5.88;5.28;;;;;;;;;;5015736;28;20183;-82
2023/08/12 11:30:05;;;;;;;4.80;4.40;;;;;;;;;;5017543;28;20190;-84
2023/08/12 11:32:31;;;;;;;5.95;5.22;;;;;;;;;;5006753;28;20226;-84
2023/08/12 11:34:56;;;;;;;5.68;5.10;;;;;;;;;;5013204;28;20181;-83
2023/08/12 11:37:21;;;;;;;5.40;4.90;;;;;;;;;;5014017;28;20255;-84
2023/08/12 11:39:46;;;;;;;6.32;4.88;;;;;;;;;;5006547;28;20238;-84
2023/08/12 11:42:12;;;;;;;5.25;4.75;;;;;;;;;;5010026;28;20253;-84
2023/08/12 11:44:39;;;;;;;5.45;5.00;;;;;;;;;;5013642;28;20189;-84
2023/08/12 11:47:04;;;;;;;6.43;4.82;;;;;;;;;;5026625;28;20241;-83
2023/08/12 11:49:30;;;;;;;8.77;4.70;;;;;;;;;;5010766;28;20202;-84
2023/08/12 11:51:55;;;;;;;5.72;4.93;;;;;;;;;;5023572;28;20218;-84
2023/08/12 11:54:20;;;;;;;7.00;4.90;;;;;;;;;;5026125;28;20263;-83
2023/08/12 11:56:46;;;;;;;5.45;4.80;;;;;;;;;;5009050;28;20232;-86
2023/08/12 11:59:11;;;;;;;12.07;5.22;;;;;;;;;;5010910;28;20222;-84
2023/08/12 12:01:37;;;;;;;4.68;4.28;;;;;;;;;;5011799;28;20210;-83
2023/08/12 12:04:02;;;;;;;5.60;5.10;;;;;;;;;;5012602;28;20240;-84
2023/08/12 12:06:32;;;;;;;5.20;4.70;;;;;;;;;;5011836;28;20210;-83
2023/08/12 12:09:00;;;;;;;7.50;4.80;;;;;;;;;;5015771;28;20183;-84
2023/08/12 12:11:26;;;;;;;6.95;4.25;;;;;;;;;;5029975;28;20170;-83
2023/08/12 12:13:51;;;;;;;6.55;4.97;;;;;;;;;;5013103;28;20308;-79
2023/08/12 12:16:16;;;;;;;5.07;4.53;;;;;;;;;;5007737;28;20186;-80
2023/08/12 12:18:41;;;;;;;4.65;4.25;;;;;;;;;;5011256;28;20218;-83
2023/08/12 12:21:06;;;;;;;5.43;3.90;;;;;;;;;;5010787;28;20185;-80
2023/08/12 12:23:32;;;;;;;3.63;3.33;;;;;;;;;;5016797;28;20187;-83
2023/08/12 12:25:58;;;;;;;3.60;3.30;;;;;;;;;;5026927;28;20443;-83
2023/08/12 12:28:23;;;;;;;7.18;4.03;;;;;;;;;;5011691;28;20174;-84
2023/08/12 12:30:48;;;;;;;4.28;3.55;;;;;;;;;;5020808;28;20193;-83
2023/08/12 12:33:14;;;;;;;3.47;3.17;;;;;;;;;;5027863;28;20182;-83
2023/08/12 12:35:39;;;;;;;3.42;3.13;;;;;;;;;;5006705;28;20175;-83
2023/08/12 12:38:04;;;;;;;3.83;2.95;;;;;;;;;;5024875;28;20199;-83
2023/08/12 12:40:29;;;;;;;5.53;3.33;;;;;;;;;;5008627;28;20172;-83
2023/08/12 12:42:54;;;;;;;4.43;3.13;;;;;;;;;;5010299;28;20186;-83
2023/08/12 12:45:20;;;;;;;5.50;3.38;;;;;;;;;;5013000;28;20182;-83
2023/08/12 12:47:45;;;;;;;3.38;3.08;;;;;;;;;;5016871;28;20187;-82
2023/08/12 12:50:10;;;;;;;4.90;3.38;;;;;;;;;;5005366;28;20215;-83
2023/08/12 12:52:36;;;;;;;3.78;3.33;;;;;;;;;;5007727;28;20310;-82
2023/08/12 12:55:04;;;;;;;3.95;2.95;;;;;;;;;;5013368;28;20179;-83
2023/08/12 12:57:29;;;;;;;4.25;3.50;;;;;;;;;;5014936;28;20187;-82
2023/08/12 12:59:54;;;;;;;4.82;3.38;;;;;;;;;;5017018;28;20181;-82
2023/08/12 13:02:19;;;;;;;4.60;2.90;;;;;;;;;;5011354;28;20183;-82
2023/08/12 13:04:44;;;;;;;3.38;2.85;;;;;;;;;;5019739;28;20264;-82
2023/08/12 13:07:10;;;;;;;3.05;2.85;;;;;;;;;;5033144;28;20237;-83
2023/08/12 13:09:35;;;;;;;5.85;3.92;;;;;;;;;;5016321;28;20262;-82
2023/08/12 13:12:00;;;;;;;4.93;3.13;;;;;;;;;;5033204;28;20194;-83
2023/08/12 13:14:25;;;;;;;3.33;3.00;;;;;;;;;;5018064;28;20212;-82
2023/08/12 13:16:50;;;;;;;4.55;3.50;;;;;;;;;;5016808;28;20205;-83
2023/08/12 13:19:16;;;;;;;4.32;3.28;;;;;;;;;;5014085;28;20186;-82
2023/08/12 13:21:41;;;;;;;3.97;3.22;;;;;;;;;;5011582;28;20191;-83
2023/08/12 13:24:07;;;;;;;5.30;3.50;;;;;;;;;;5014752;28;20210;-82
2023/08/12 13:26:32;;;;;;;3.75;3.45;;;;;;;;;;5012845;28;20218;-82
2023/08/12 13:28:57;;;;;;;4.75;3.60;;;;;;;;;;5034900;28;20190;-83
2023/08/12 13:31:23;;;;;;;3.97;3.38;;;;;;;;;;5016568;28;20274;-82
2023/08/12 13:33:48;;;;;;;4.38;3.30;;;;;;;;;;5013779;28;20244;-81
2023/08/12 13:36:13;;;;;;;5.50;3.55;;;;;;;;;;5024645;28;20179;-82
2023/08/12 13:38:38;;;;;;;3.42;3.13;;;;;;;;;;5033554;28;20194;-82
2023/08/12 13:41:03;;;;;;;5.97;3.38;;;;;;;;;;5005239;28;20186;-82
2023/08/12 13:43:30;;;;;;;3.58;3.25;;;;;;;;;;5015208;28;20293;-82
2023/08/12 13:45:55;;;;;;;4.75;3.58;;;;;;;;;;5012487;28;20202;-82
2023/08/12 13:48:20;;;;;;;5.22;3.67;;;;;;;;;;5029906;28;20183;-82
2023/08/12 13:50:49;;;;;;;3.67;3.30;;;;;;;;;;5017267;28;20222;-82
2023/08/12 13:53:14;;;;;;;4.95;3.75;;;;;;;;;;5015308;28;20177;-83
2023/08/12 13:55:39;;;;;;;4.13;3.43;;;;;;;;;;5011046;28;20286;-82
2023/08/12 13:58:04;;;;;;;3.50;3.20;;;;;;;;;;5012469;28;20424;-82
2023/08/12 14:00:30;;;;;;;5.35;3.60;;;;;;;;;;5012214;28;20179;-81
2023/08/12 14:02:55;;;;;;;5.13;3.47;;;;;;;;;;5006680;28;20217;-82
2023/08/12 14:05:20;;;;;;;4.20;3.17;;;;;;;;;;5012565;28;20198;-82
2023/08/12 14:07:45;;;;;;;3.63;3.25;;;;;;;;;;5013334;28;20182;-81
2023/08/12 14:10:11;;;;;;;6.45;3.50;;;;;;;;;;5016745;28;20198;-82
2023/08/12 14:12:36;;;;;;;3.65;3.30;;;;;;;;;;5032364;28;20205;-82
2023/08/12 14:15:01;;;;;;;3.63;3.33;;;;;;;;;;5032808;28;20186;-81
2023/08/12 14:17:27;;;;;;;3.92;3.38;;;;;;;;;;5014612;28;20186;-81
2023/08/12 14:19:53;;;;;;;4.65;3.53;;;;;;;;;;5010720;28;20198;-82
2023/08/12 14:22:18;;;;;;;4.20;3.15;;;;;;;;;;5008729;28;20181;-82
2023/08/12 14:24:48;;;;;;;3.97;3.20;;;;;;;;;;5016446;28;20193;-82
2023/08/12 14:27:13;;;;;;;5.75;3.53;;;;;;;;;;5005927;28;20214;-78
2023/08/12 14:29:38;;;;;;;3.97;3.65;;;;;;;;;;5014053;28;20174;-78
2023/08/12 14:32:04;;;;;;;5.80;4.15;;;;;;;;;;5027396;28;20233;-80
2023/08/12 14:34:30;;;;;;;4.10;3.70;;;;;;;;;;5013946;28;20187;-78